sensor_id;sensor_type;location;lat;lon;timestamp;P1;durP1;ratioP1;P2;durP2;ratioP2
30287;SDS011;17103;48.316;11.558;2023-04-15T00:00:45;3.55;;;1.88;;
30287;SDS011;17103;48.316;11.558;2023-04-15T00:03:11;2.05;;;1.40;;
30287;SDS011;17103;48.316;11.558;2023-04-15T00:05:36;2.58;;;1.73;;
30287;SDS011;17103;48.316;11.558;2023-04-15T00:08:02;2.55;;;1.45;;
30287;SDS011;17103;48.316;11.558;2023-04-15T00:10:28;3.97;;;1.40;;
30287;SDS011;17103;48.316;11.558;2023-04-15T00:12:53;4.25;;;2.17;;
30287;SDS011;17103;48.316;11.558;2023-04-15T00:15:19;2.97;;;1.73;;
30287;SDS011;17103;48.316;11.558;2023-04-15T00:17:45;3.58;;;1.73;;
30287;SDS011;17103;48.316;11.558;2023-04-15T00:20:11;3.25;;;1.60;;
30287;SDS011;17103;48.316;11.558;2023-04-15T00:22:36;2.72;;;1.40;;
30287;SDS011;17103;48.316;11.558;2023-04-15T00:25:02;3.35;;;1.80;;
30287;SDS011;17103;48.316;11.558;2023-04-15T00:27:28;4.22;;;1.75;;
30287;SDS011;17103;48.316;11.558;2023-04-15T00:29:54;2.92;;;1.58;;
30287;SDS011;17103;48.316;11.558;2023-04-15T00:32:20;3.20;;;1.90;;
30287;SDS011;17103;48.316;11.558;2023-04-15T00:34:46;2.38;;;1.70;;
30287;SDS011;17103;48.316;11.558;2023-04-15T00:37:11;4.18;;;1.60;;
30287;SDS011;17103;48.316;11.558;2023-04-15T00:39:37;2.53;;;1.55;;
30287;SDS011;17103;48.316;11.558;2023-04-15T00:42:03;3.42;;;1.67;;
30287;SDS011;17103;48.316;11.558;2023-04-15T00:44:29;4.38;;;1.80;;
30287;SDS011;17103;48.316;11.558;2023-04-15T00:46:55;3.85;;;2.22;;
30287;SDS011;17103;48.316;11.558;2023-04-15T00:49:21;2.45;;;1.83;;
30287;SDS011;17103;48.316;11.558;2023-04-15T00:51:47;5.90;;;2.03;;
30287;SDS011;17103;48.316;11.558;2023-04-15T00:54:13;4.57;;;1.70;;
30287;SDS011;17103;48.316;11.558;2023-04-15T00:56:40;2.33;;;1.52;;
30287;SDS011;17103;48.316;11.558;2023-04-15T00:59:06;3.35;;;1.67;;
30287;SDS011;17103;48.316;11.558;2023-04-15T01:01:33;3.88;;;1.50;;
30287;SDS011;17103;48.316;11.558;2023-04-15T01:04:00;3.80;;;2.00;;
30287;SDS011;17103;48.316;11.558;2023-04-15T01:06:27;3.28;;;2.28;;
30287;SDS011;17103;48.316;11.558;2023-04-15T01:08:54;3.28;;;2.08;;
30287;SDS011;17103;48.316;11.558;2023-04-15T01:11:21;2.78;;;2.22;;
30287;SDS011;17103;48.316;11.558;2023-04-15T01:13:48;4.20;;;1.85;;
30287;SDS011;17103;48.316;11.558;2023-04-15T01:16:14;3.35;;;2.13;;
30287;SDS011;17103;48.316;11.558;2023-04-15T01:18:41;4.32;;;2.65;;
30287;SDS011;17103;48.316;11.558;2023-04-15T01:21:07;3.95;;;2.10;;
30287;SDS011;17103;48.316;11.558;2023-04-15T01:23:34;2.90;;;2.20;;
30287;SDS011;17103;48.316;11.558;2023-04-15T01:26:01;2.80;;;2.15;;
30287;SDS011;17103;48.316;11.558;2023-04-15T01:28:28;3.22;;;2.25;;
30287;SDS011;17103;48.316;11.558;2023-04-15T01:33:32;3.55;;;1.88;;
30287;SDS011;17103;48.316;11.558;2023-04-15T01:35:57;4.03;;;3.33;;
30287;SDS011;17103;48.316;11.558;2023-04-15T01:38:24;3.85;;;2.42;;
30287;SDS011;17103;48.316;11.558;2023-04-15T01:40:51;3.97;;;2.53;;
30287;SDS011;17103;48.316;11.558;2023-04-15T01:43:16;3.45;;;2.22;;
30287;SDS011;17103;48.316;11.558;2023-04-15T01:45:43;6.82;;;2.88;;
30287;SDS011;17103;48.316;11.558;2023-04-15T01:48:08;4.38;;;2.55;;
30287;SDS011;17103;48.316;11.558;2023-04-15T01:50:34;7.40;;;2.95;;
30287;SDS011;17103;48.316;11.558;2023-04-15T01:53:02;4.57;;;2.65;;
30287;SDS011;17103;48.316;11.558;2023-04-15T01:55:28;3.83;;;2.65;;
30287;SDS011;17103;48.316;11.558;2023-04-15T01:57:55;4.57;;;2.78;;
30287;SDS011;17103;48.316;11.558;2023-04-15T02:00:21;4.25;;;3.10;;
30287;SDS011;17103;48.316;11.558;2023-04-15T02:02:47;4.78;;;2.55;;
30287;SDS011;17103;48.316;11.558;2023-04-15T02:05:13;3.80;;;1.95;;
30287;SDS011;17103;48.316;11.558;2023-04-15T02:07:40;4.95;;;2.13;;
30287;SDS011;17103;48.316;11.558;2023-04-15T02:10:09;2.53;;;2.15;;
30287;SDS011;17103;48.316;11.558;2023-04-15T02:12:35;4.50;;;2.80;;
30287;SDS011;17103;48.316;11.558;2023-04-15T02:15:01;3.50;;;2.28;;
30287;SDS011;17103;48.316;11.558;2023-04-15T02:17:27;3.90;;;2.30;;
30287;SDS011;17103;48.316;11.558;2023-04-15T02:19:54;4.60;;;2.95;;
30287;SDS011;17103;48.316;11.558;2023-04-15T02:22:20;3.63;;;2.70;;
30287;SDS011;17103;48.316;11.558;2023-04-15T02:24:46;4.82;;;3.53;;
30287;SDS011;17103;48.316;11.558;2023-04-15T02:27:15;4.13;;;2.67;;
30287;SDS011;17103;48.316;11.558;2023-04-15T02:29:42;4.30;;;3.33;;
30287;SDS011;17103;48.316;11.558;2023-04-15T02:32:09;4.20;;;3.08;;
30287;SDS011;17103;48.316;11.558;2023-04-15T02:34:35;3.72;;;3.00;;
30287;SDS011;17103;48.316;11.558;2023-04-15T02:37:05;4.30;;;3.40;;
30287;SDS011;17103;48.316;11.558;2023-04-15T02:39:31;3.90;;;3.00;;
30287;SDS011;17103;48.316;11.558;2023-04-15T02:41:57;3.88;;;3.13;;
30287;SDS011;17103;48.316;11.558;2023-04-15T02:44:24;6.60;;;3.38;;
30287;SDS011;17103;48.316;11.558;2023-04-15T02:46:51;5.22;;;3.20;;
30287;SDS011;17103;48.316;11.558;2023-04-15T02:49:18;3.53;;;3.05;;
30287;SDS011;17103;48.316;11.558;2023-04-15T02:51:45;4.15;;;2.80;;
30287;SDS011;17103;48.316;11.558;2023-04-15T02:54:14;7.10;;;2.83;;
30287;SDS011;17103;48.316;11.558;2023-04-15T02:56:43;4.78;;;3.10;;
30287;SDS011;17103;48.316;11.558;2023-04-15T02:59:09;4.63;;;2.53;;
30287;SDS011;17103;48.316;11.558;2023-04-15T03:01:37;4.95;;;3.10;;
30287;SDS011;17103;48.316;11.558;2023-04-15T03:04:03;3.97;;;2.65;;
30287;SDS011;17103;48.316;11.558;2023-04-15T03:06:28;5.25;;;3.17;;
30287;SDS011;17103;48.316;11.558;2023-04-15T03:08:54;4.00;;;2.97;;
30287;SDS011;17103;48.316;11.558;2023-04-15T03:11:21;4.90;;;3.28;;
30287;SDS011;17103;48.316;11.558;2023-04-15T03:13:46;4.00;;;3.00;;
30287;SDS011;17103;48.316;11.558;2023-04-15T03:16:12;5.10;;;2.88;;
30287;SDS011;17103;48.316;11.558;2023-04-15T03:18:38;5.38;;;3.83;;
30287;SDS011;17103;48.316;11.558;2023-04-15T03:21:03;6.85;;;2.90;;
30287;SDS011;17103;48.316;11.558;2023-04-15T03:23:30;4.72;;;2.88;;
30287;SDS011;17103;48.316;11.558;2023-04-15T03:25:56;3.80;;;3.38;;
30287;SDS011;17103;48.316;11.558;2023-04-15T03:28:23;3.13;;;2.63;;
30287;SDS011;17103;48.316;11.558;2023-04-15T03:30:48;7.43;;;3.03;;
30287;SDS011;17103;48.316;11.558;2023-04-15T03:33:14;3.47;;;2.72;;
30287;SDS011;17103;48.316;11.558;2023-04-15T03:35:40;5.05;;;3.15;;
30287;SDS011;17103;48.316;11.558;2023-04-15T03:38:06;4.35;;;2.47;;
30287;SDS011;17103;48.316;11.558;2023-04-15T03:40:31;3.40;;;2.55;;
30287;SDS011;17103;48.316;11.558;2023-04-15T03:42:57;4.35;;;2.20;;
30287;SDS011;17103;48.316;11.558;2023-04-15T03:45:23;3.70;;;2.22;;
30287;SDS011;17103;48.316;11.558;2023-04-15T03:47:49;4.00;;;2.88;;
30287;SDS011;17103;48.316;11.558;2023-04-15T03:50:15;5.35;;;2.58;;
30287;SDS011;17103;48.316;11.558;2023-04-15T03:52:40;4.68;;;2.97;;
30287;SDS011;17103;48.316;11.558;2023-04-15T03:55:06;3.75;;;3.10;;
30287;SDS011;17103;48.316;11.558;2023-04-15T03:57:32;4.72;;;2.72;;
30287;SDS011;17103;48.316;11.558;2023-04-15T04:00:03;3.95;;;2.35;;
30287;SDS011;17103;48.316;11.558;2023-04-15T04:02:29;4.72;;;3.28;;
30287;SDS011;17103;48.316;11.558;2023-04-15T04:04:55;3.55;;;2.65;;
30287;SDS011;17103;48.316;11.558;2023-04-15T04:07:22;11.27;;;3.15;;
30287;SDS011;17103;48.316;11.558;2023-04-15T04:09:48;3.97;;;2.25;;
30287;SDS011;17103;48.316;11.558;2023-04-15T04:12:14;3.40;;;2.30;;
30287;SDS011;17103;48.316;11.558;2023-04-15T04:14:40;5.03;;;2.75;;
30287;SDS011;17103;48.316;11.558;2023-04-15T04:17:05;6.25;;;3.08;;
30287;SDS011;17103;48.316;11.558;2023-04-15T04:19:31;4.30;;;2.70;;
30287;SDS011;17103;48.316;11.558;2023-04-15T04:21:57;3.13;;;2.10;;
30287;SDS011;17103;48.316;11.558;2023-04-15T04:24:22;5.60;;;2.65;;
30287;SDS011;17103;48.316;11.558;2023-04-15T04:26:48;2.70;;;1.98;;
30287;SDS011;17103;48.316;11.558;2023-04-15T04:29:13;5.15;;;2.83;;
30287;SDS011;17103;48.316;11.558;2023-04-15T04:31:39;3.55;;;2.50;;
30287;SDS011;17103;48.316;11.558;2023-04-15T04:34:05;4.78;;;2.33;;
30287;SDS011;17103;48.316;11.558;2023-04-15T04:36:31;3.25;;;2.65;;
30287;SDS011;17103;48.316;11.558;2023-04-15T04:38:56;4.45;;;2.70;;
30287;SDS011;17103;48.316;11.558;2023-04-15T04:41:22;4.57;;;2.83;;
30287;SDS011;17103;48.316;11.558;2023-04-15T04:43:48;3.70;;;2.65;;
30287;SDS011;17103;48.316;11.558;2023-04-15T04:46:13;5.40;;;2.58;;
30287;SDS011;17103;48.316;11.558;2023-04-15T04:48:39;2.25;;;2.00;;
30287;SDS011;17103;48.316;11.558;2023-04-15T04:51:05;3.92;;;2.42;;
30287;SDS011;17103;48.316;11.558;2023-04-15T04:53:31;3.00;;;2.50;;
30287;SDS011;17103;48.316;11.558;2023-04-15T04:55:57;2.95;;;2.63;;
30287;SDS011;17103;48.316;11.558;2023-04-15T04:58:23;3.95;;;2.58;;
30287;SDS011;17103;48.316;11.558;2023-04-15T05:00:49;4.05;;;2.25;;
30287;SDS011;17103;48.316;11.558;2023-04-15T05:03:15;4.70;;;3.10;;
30287;SDS011;17103;48.316;11.558;2023-04-15T05:05:40;4.88;;;2.63;;
30287;SDS011;17103;48.316;11.558;2023-04-15T05:08:06;6.20;;;2.75;;
30287;SDS011;17103;48.316;11.558;2023-04-15T05:10:32;3.58;;;2.45;;
30287;SDS011;17103;48.316;11.558;2023-04-15T05:12:57;5.85;;;2.80;;
30287;SDS011;17103;48.316;11.558;2023-04-15T05:15:23;5.07;;;2.25;;
30287;SDS011;17103;48.316;11.558;2023-04-15T05:17:49;4.03;;;2.28;;
30287;SDS011;17103;48.316;11.558;2023-04-15T05:20:15;2.80;;;1.90;;
30287;SDS011;17103;48.316;11.558;2023-04-15T05:22:41;4.65;;;2.40;;
30287;SDS011;17103;48.316;11.558;2023-04-15T05:25:06;2.83;;;2.20;;
30287;SDS011;17103;48.316;11.558;2023-04-15T05:27:32;5.10;;;2.17;;
30287;SDS011;17103;48.316;11.558;2023-04-15T05:29:58;3.85;;;2.22;;
30287;SDS011;17103;48.316;11.558;2023-04-15T05:32:24;2.80;;;2.17;;
30287;SDS011;17103;48.316;11.558;2023-04-15T05:34:50;5.60;;;2.72;;
30287;SDS011;17103;48.316;11.558;2023-04-15T05:37:16;4.68;;;2.70;;
30287;SDS011;17103;48.316;11.558;2023-04-15T05:39:42;5.47;;;2.80;;
30287;SDS011;17103;48.316;11.558;2023-04-15T05:42:08;4.30;;;2.38;;
30287;SDS011;17103;48.316;11.558;2023-04-15T05:44:33;6.63;;;2.80;;
30287;SDS011;17103;48.316;11.558;2023-04-15T05:46:59;4.47;;;2.50;;
30287;SDS011;17103;48.316;11.558;2023-04-15T05:49:25;4.18;;;2.30;;
30287;SDS011;17103;48.316;11.558;2023-04-15T05:51:51;4.60;;;2.47;;
30287;SDS011;17103;48.316;11.558;2023-04-15T05:54:17;3.75;;;2.38;;
30287;SDS011;17103;48.316;11.558;2023-04-15T05:56:42;2.85;;;1.95;;
30287;SDS011;17103;48.316;11.558;2023-04-15T05:59:08;5.35;;;2.60;;
30287;SDS011;17103;48.316;11.558;2023-04-15T06:01:34;3.63;;;2.58;;
30287;SDS011;17103;48.316;11.558;2023-04-15T06:03:59;4.63;;;3.13;;
30287;SDS011;17103;48.316;11.558;2023-04-15T06:06:25;5.38;;;2.78;;
30287;SDS011;17103;48.316;11.558;2023-04-15T06:08:51;2.88;;;2.30;;
30287;SDS011;17103;48.316;11.558;2023-04-15T06:11:18;4.95;;;2.80;;
30287;SDS011;17103;48.316;11.558;2023-04-15T06:13:48;6.68;;;2.70;;
30287;SDS011;17103;48.316;11.558;2023-04-15T06:16:14;4.88;;;2.55;;
30287;SDS011;17103;48.316;11.558;2023-04-15T06:18:39;4.07;;;2.25;;
30287;SDS011;17103;48.316;11.558;2023-04-15T06:21:05;8.02;;;4.15;;
30287;SDS011;17103;48.316;11.558;2023-04-15T06:23:33;6.43;;;3.80;;
30287;SDS011;17103;48.316;11.558;2023-04-15T06:26:00;7.85;;;3.47;;
30287;SDS011;17103;48.316;11.558;2023-04-15T06:28:26;4.53;;;3.10;;
30287;SDS011;17103;48.316;11.558;2023-04-15T06:30:52;4.18;;;3.00;;
30287;SDS011;17103;48.316;11.558;2023-04-15T06:33:18;5.60;;;3.20;;
30287;SDS011;17103;48.316;11.558;2023-04-15T06:35:44;6.43;;;3.47;;
30287;SDS011;17103;48.316;11.558;2023-04-15T06:38:10;11.13;;;3.17;;
30287;SDS011;17103;48.316;11.558;2023-04-15T06:40:36;6.03;;;3.10;;
30287;SDS011;17103;48.316;11.558;2023-04-15T06:43:02;7.03;;;2.83;;
30287;SDS011;17103;48.316;11.558;2023-04-15T06:45:29;5.47;;;2.90;;
30287;SDS011;17103;48.316;11.558;2023-04-15T06:47:55;4.50;;;2.75;;
30287;SDS011;17103;48.316;11.558;2023-04-15T06:50:21;6.50;;;2.90;;
30287;SDS011;17103;48.316;11.558;2023-04-15T06:52:46;4.85;;;2.85;;
30287;SDS011;17103;48.316;11.558;2023-04-15T06:55:12;5.13;;;3.33;;
30287;SDS011;17103;48.316;11.558;2023-04-15T06:57:38;4.78;;;3.10;;
30287;SDS011;17103;48.316;11.558;2023-04-15T07:00:05;6.45;;;3.10;;
30287;SDS011;17103;48.316;11.558;2023-04-15T07:02:32;6.15;;;3.42;;
30287;SDS011;17103;48.316;11.558;2023-04-15T07:04:57;4.07;;;2.33;;
30287;SDS011;17103;48.316;11.558;2023-04-15T07:07:23;4.65;;;2.55;;
30287;SDS011;17103;48.316;11.558;2023-04-15T07:09:49;4.25;;;2.45;;
30287;SDS011;17103;48.316;11.558;2023-04-15T07:12:17;8.93;;;3.50;;
30287;SDS011;17103;48.316;11.558;2023-04-15T07:14:43;6.03;;;2.30;;
30287;SDS011;17103;48.316;11.558;2023-04-15T07:17:09;3.50;;;1.92;;
30287;SDS011;17103;48.316;11.558;2023-04-15T07:19:35;6.93;;;2.10;;
30287;SDS011;17103;48.316;11.558;2023-04-15T07:22:01;3.60;;;2.42;;
30287;SDS011;17103;48.316;11.558;2023-04-15T07:24:26;2.47;;;1.85;;
30287;SDS011;17103;48.316;11.558;2023-04-15T07:26:53;5.97;;;2.63;;
30287;SDS011;17103;48.316;11.558;2023-04-15T07:29:21;10.90;;;3.00;;
30287;SDS011;17103;48.316;11.558;2023-04-15T07:31:47;5.30;;;1.90;;
30287;SDS011;17103;48.316;11.558;2023-04-15T07:34:13;6.60;;;2.60;;
30287;SDS011;17103;48.316;11.558;2023-04-15T07:36:39;6.75;;;2.80;;
30287;SDS011;17103;48.316;11.558;2023-04-15T07:39:04;7.18;;;3.15;;
30287;SDS011;17103;48.316;11.558;2023-04-15T07:41:30;4.57;;;1.80;;
30287;SDS011;17103;48.316;11.558;2023-04-15T07:43:56;4.10;;;2.05;;
30287;SDS011;17103;48.316;11.558;2023-04-15T07:46:22;4.90;;;1.90;;
30287;SDS011;17103;48.316;11.558;2023-04-15T07:48:48;4.15;;;1.75;;
30287;SDS011;17103;48.316;11.558;2023-04-15T07:51:15;5.18;;;2.20;;
30287;SDS011;17103;48.316;11.558;2023-04-15T07:53:41;5.10;;;2.58;;
30287;SDS011;17103;48.316;11.558;2023-04-15T07:56:08;3.67;;;1.73;;
30287;SDS011;17103;48.316;11.558;2023-04-15T07:58:34;5.10;;;2.15;;
30287;SDS011;17103;48.316;11.558;2023-04-15T08:01:00;4.80;;;2.33;;
30287;SDS011;17103;48.316;11.558;2023-04-15T08:03:26;5.55;;;2.20;;
30287;SDS011;17103;48.316;11.558;2023-04-15T08:05:54;2.95;;;1.70;;
30287;SDS011;17103;48.316;11.558;2023-04-15T08:08:20;3.78;;;1.60;;
30287;SDS011;17103;48.316;11.558;2023-04-15T08:10:46;2.35;;;1.30;;
30287;SDS011;17103;48.316;11.558;2023-04-15T08:13:12;3.58;;;1.55;;
30287;SDS011;17103;48.316;11.558;2023-04-15T08:15:37;4.10;;;1.40;;
30287;SDS011;17103;48.316;11.558;2023-04-15T08:18:03;3.95;;;1.92;;
30287;SDS011;17103;48.316;11.558;2023-04-15T08:20:28;3.53;;;1.65;;
30287;SDS011;17103;48.316;11.558;2023-04-15T08:22:54;4.65;;;2.33;;
30287;SDS011;17103;48.316;11.558;2023-04-15T08:25:20;3.53;;;1.80;;
30287;SDS011;17103;48.316;11.558;2023-04-15T08:27:46;3.42;;;1.92;;
30287;SDS011;17103;48.316;11.558;2023-04-15T08:30:11;5.22;;;1.83;;
30287;SDS011;17103;48.316;11.558;2023-04-15T08:32:38;5.72;;;1.65;;
30287;SDS011;17103;48.316;11.558;2023-04-15T08:35:03;6.07;;;1.60;;
30287;SDS011;17103;48.316;11.558;2023-04-15T08:37:29;3.28;;;1.48;;
30287;SDS011;17103;48.316;11.558;2023-04-15T08:39:55;7.00;;;1.98;;
30287;SDS011;17103;48.316;11.558;2023-04-15T08:42:26;5.65;;;1.70;;
30287;SDS011;17103;48.316;11.558;2023-04-15T08:44:58;3.38;;;1.70;;
30287;SDS011;17103;48.316;11.558;2023-04-15T08:47:25;7.28;;;3.15;;
30287;SDS011;17103;48.316;11.558;2023-04-15T08:49:54;5.57;;;1.70;;
30287;SDS011;17103;48.316;11.558;2023-04-15T08:52:25;3.88;;;1.85;;
30287;SDS011;17103;48.316;11.558;2023-04-15T08:54:55;3.92;;;1.63;;
30287;SDS011;17103;48.316;11.558;2023-04-15T08:57:25;5.00;;;1.92;;
30287;SDS011;17103;48.316;11.558;2023-04-15T08:59:52;4.28;;;2.50;;
30287;SDS011;17103;48.316;11.558;2023-04-15T09:02:22;2.63;;;1.35;;
30287;SDS011;17103;48.316;11.558;2023-04-15T09:04:50;3.33;;;1.58;;
30287;SDS011;17103;48.316;11.558;2023-04-15T09:07:16;4.22;;;2.45;;
30287;SDS011;17103;48.316;11.558;2023-04-15T09:09:41;4.63;;;1.95;;
30287;SDS011;17103;48.316;11.558;2023-04-15T09:12:08;5.22;;;2.00;;
30287;SDS011;17103;48.316;11.558;2023-04-15T09:14:35;6.38;;;2.10;;
30287;SDS011;17103;48.316;11.558;2023-04-15T09:17:04;3.67;;;2.17;;
30287;SDS011;17103;48.316;11.558;2023-04-15T09:19:34;2.88;;;1.85;;
30287;SDS011;17103;48.316;11.558;2023-04-15T09:22:00;4.25;;;2.25;;
30287;SDS011;17103;48.316;11.558;2023-04-15T09:24:36;5.32;;;2.47;;
30287;SDS011;17103;48.316;11.558;2023-04-15T09:27:04;5.97;;;2.10;;
30287;SDS011;17103;48.316;11.558;2023-04-15T09:29:30;5.07;;;2.47;;
30287;SDS011;17103;48.316;11.558;2023-04-15T09:31:56;4.45;;;2.10;;
30287;SDS011;17103;48.316;11.558;2023-04-15T09:34:43;3.53;;;1.90;;
30287;SDS011;17103;48.316;11.558;2023-04-15T09:37:10;8.32;;;2.70;;
30287;SDS011;17103;48.316;11.558;2023-04-15T09:39:58;5.00;;;2.45;;
30287;SDS011;17103;48.316;11.558;2023-04-15T09:42:23;5.03;;;2.78;;
30287;SDS011;17103;48.316;11.558;2023-04-15T09:44:50;5.95;;;3.33;;
30287;SDS011;17103;48.316;11.558;2023-04-15T09:47:26;6.78;;;3.17;;
30287;SDS011;17103;48.316;11.558;2023-04-15T09:49:57;5.32;;;2.90;;
30287;SDS011;17103;48.316;11.558;2023-04-15T09:52:23;4.90;;;2.63;;
30287;SDS011;17103;48.316;11.558;2023-04-15T09:54:52;4.25;;;2.33;;
30287;SDS011;17103;48.316;11.558;2023-04-15T09:57:21;5.72;;;2.85;;
30287;SDS011;17103;48.316;11.558;2023-04-15T09:59:48;5.43;;;3.00;;
30287;SDS011;17103;48.316;11.558;2023-04-15T10:02:14;8.07;;;3.72;;
30287;SDS011;17103;48.316;11.558;2023-04-15T10:04:40;7.28;;;3.63;;
30287;SDS011;17103;48.316;11.558;2023-04-15T10:07:10;4.70;;;2.42;;
30287;SDS011;17103;48.316;11.558;2023-04-15T10:09:37;4.15;;;2.80;;
30287;SDS011;17103;48.316;11.558;2023-04-15T10:12:04;5.97;;;2.53;;
30287;SDS011;17103;48.316;11.558;2023-04-15T10:14:31;6.72;;;3.47;;
30287;SDS011;17103;48.316;11.558;2023-04-15T10:17:00;4.63;;;2.80;;
30287;SDS011;17103;48.316;11.558;2023-04-15T10:19:27;7.93;;;4.28;;
30287;SDS011;17103;48.316;11.558;2023-04-15T10:21:59;6.55;;;3.40;;
30287;SDS011;17103;48.316;11.558;2023-04-15T10:24:25;5.40;;;3.28;;
30287;SDS011;17103;48.316;11.558;2023-04-15T10:26:51;5.80;;;3.75;;
30287;SDS011;17103;48.316;11.558;2023-04-15T10:29:18;6.07;;;4.10;;
30287;SDS011;17103;48.316;11.558;2023-04-15T10:31:44;4.15;;;3.00;;
30287;SDS011;17103;48.316;11.558;2023-04-15T10:34:12;6.13;;;3.00;;
30287;SDS011;17103;48.316;11.558;2023-04-15T10:36:39;5.55;;;3.40;;
30287;SDS011;17103;48.316;11.558;2023-04-15T10:39:50;4.55;;;3.22;;
30287;SDS011;17103;48.316;11.558;2023-04-15T10:42:12;4.82;;;3.15;;
30287;SDS011;17103;48.316;11.558;2023-04-15T10:44:42;5.30;;;3.20;;
30287;SDS011;17103;48.316;11.558;2023-04-15T10:47:19;4.05;;;3.08;;
30287;SDS011;17103;48.316;11.558;2023-04-15T10:52:13;7.88;;;3.95;;
30287;SDS011;17103;48.316;11.558;2023-04-15T10:54:40;5.50;;;3.95;;
30287;SDS011;17103;48.316;11.558;2023-04-15T10:57:07;8.30;;;3.50;;
30287;SDS011;17103;48.316;11.558;2023-04-15T11:02:41;4.65;;;2.78;;
30287;SDS011;17103;48.316;11.558;2023-04-15T11:05:15;5.80;;;2.95;;
30287;SDS011;17103;48.316;11.558;2023-04-15T11:13:01;3.95;;;2.67;;
30287;SDS011;17103;48.316;11.558;2023-04-15T11:15:29;3.10;;;2.45;;
30287;SDS011;17103;48.316;11.558;2023-04-15T11:17:58;3.83;;;2.83;;
30287;SDS011;17103;48.316;11.558;2023-04-15T11:20:32;4.47;;;3.08;;
30287;SDS011;17103;48.316;11.558;2023-04-15T11:22:58;4.47;;;2.83;;
30287;SDS011;17103;48.316;11.558;2023-04-15T11:25:31;10.18;;;4.15;;
30287;SDS011;17103;48.316;11.558;2023-04-15T11:27:59;5.05;;;3.25;;
30287;SDS011;17103;48.316;11.558;2023-04-15T11:30:27;5.90;;;3.55;;
30287;SDS011;17103;48.316;11.558;2023-04-15T11:32:58;4.70;;;3.30;;
30287;SDS011;17103;48.316;11.558;2023-04-15T11:35:26;6.63;;;3.13;;
30287;SDS011;17103;48.316;11.558;2023-04-15T11:37:52;4.43;;;3.00;;
30287;SDS011;17103;48.316;11.558;2023-04-15T11:40:23;5.57;;;2.92;;
30287;SDS011;17103;48.316;11.558;2023-04-15T11:45:35;5.07;;;3.08;;
30287;SDS011;17103;48.316;11.558;2023-04-15T11:48:09;6.90;;;3.88;;
30287;SDS011;17103;48.316;11.558;2023-04-15T11:50:37;4.45;;;3.45;;
30287;SDS011;17103;48.316;11.558;2023-04-15T11:53:08;5.97;;;3.40;;
30287;SDS011;17103;48.316;11.558;2023-04-15T11:55:45;5.20;;;3.83;;
30287;SDS011;17103;48.316;11.558;2023-04-15T11:58:18;6.40;;;3.53;;
30287;SDS011;17103;48.316;11.558;2023-04-15T12:00:48;6.22;;;3.05;;
30287;SDS011;17103;48.316;11.558;2023-04-15T12:03:18;7.30;;;3.90;;
30287;SDS011;17103;48.316;11.558;2023-04-15T12:11:19;5.15;;;3.40;;
30287;SDS011;17103;48.316;11.558;2023-04-15T12:13:55;6.05;;;3.55;;
30287;SDS011;17103;48.316;11.558;2023-04-15T12:16:36;5.95;;;4.32;;
30287;SDS011;17103;48.316;11.558;2023-04-15T12:19:08;6.43;;;3.83;;
30287;SDS011;17103;48.316;11.558;2023-04-15T12:21:36;6.90;;;3.58;;
30287;SDS011;17103;48.316;11.558;2023-04-15T12:24:04;4.65;;;3.22;;
30287;SDS011;17103;48.316;11.558;2023-04-15T12:29:28;4.45;;;3.13;;
30287;SDS011;17103;48.316;11.558;2023-04-15T12:31:56;5.53;;;2.53;;
30287;SDS011;17103;48.316;11.558;2023-04-15T12:34:40;6.97;;;3.55;;
30287;SDS011;17103;48.316;11.558;2023-04-15T12:40:38;5.28;;;3.05;;
30287;SDS011;17103;48.316;11.558;2023-04-15T12:43:05;6.07;;;3.22;;
30287;SDS011;17103;48.316;11.558;2023-04-15T12:45:31;4.40;;;3.15;;
30287;SDS011;17103;48.316;11.558;2023-04-15T12:48:01;5.43;;;3.80;;
30287;SDS011;17103;48.316;11.558;2023-04-15T12:50:26;4.82;;;3.63;;
30287;SDS011;17103;48.316;11.558;2023-04-15T12:52:52;5.68;;;3.88;;
30287;SDS011;17103;48.316;11.558;2023-04-15T12:55:17;5.93;;;3.85;;
30287;SDS011;17103;48.316;11.558;2023-04-15T12:57:43;7.53;;;3.50;;
30287;SDS011;17103;48.316;11.558;2023-04-15T13:00:09;4.15;;;3.47;;
30287;SDS011;17103;48.316;11.558;2023-04-15T13:02:35;4.95;;;3.63;;
30287;SDS011;17103;48.316;11.558;2023-04-15T13:05:01;4.63;;;3.45;;
30287;SDS011;17103;48.316;11.558;2023-04-15T13:07:26;5.72;;;3.72;;
30287;SDS011;17103;48.316;11.558;2023-04-15T13:09:52;3.80;;;3.22;;
30287;SDS011;17103;48.316;11.558;2023-04-15T13:12:18;5.05;;;3.95;;
30287;SDS011;17103;48.316;11.558;2023-04-15T13:14:43;4.65;;;3.75;;
30287;SDS011;17103;48.316;11.558;2023-04-15T13:17:09;5.05;;;3.97;;
30287;SDS011;17103;48.316;11.558;2023-04-15T13:19:35;3.92;;;3.40;;
30287;SDS011;17103;48.316;11.558;2023-04-15T13:22:02;5.20;;;3.72;;
30287;SDS011;17103;48.316;11.558;2023-04-15T13:24:27;5.15;;;3.75;;
30287;SDS011;17103;48.316;11.558;2023-04-15T13:26:53;5.07;;;3.30;;
30287;SDS011;17103;48.316;11.558;2023-04-15T13:29:19;4.88;;;3.63;;
30287;SDS011;17103;48.316;11.558;2023-04-15T13:31:45;3.67;;;3.28;;
30287;SDS011;17103;48.316;11.558;2023-04-15T13:34:10;6.35;;;3.85;;
30287;SDS011;17103;48.316;11.558;2023-04-15T13:36:36;5.93;;;3.72;;
30287;SDS011;17103;48.316;11.558;2023-04-15T13:39:02;6.93;;;4.22;;
30287;SDS011;17103;48.316;11.558;2023-04-15T13:41:29;7.22;;;4.05;;
30287;SDS011;17103;48.316;11.558;2023-04-15T13:43:56;4.68;;;3.58;;
30287;SDS011;17103;48.316;11.558;2023-04-15T13:46:22;5.35;;;3.70;;
30287;SDS011;17103;48.316;11.558;2023-04-15T13:48:48;5.70;;;3.58;;
30287;SDS011;17103;48.316;11.558;2023-04-15T13:51:13;6.43;;;4.45;;
30287;SDS011;17103;48.316;11.558;2023-04-15T13:53:39;9.25;;;4.07;;
30287;SDS011;17103;48.316;11.558;2023-04-15T13:56:08;9.57;;;4.05;;
30287;SDS011;17103;48.316;11.558;2023-04-15T13:58:35;5.82;;;4.10;;
30287;SDS011;17103;48.316;11.558;2023-04-15T14:01:05;6.10;;;3.45;;
30287;SDS011;17103;48.316;11.558;2023-04-15T14:03:31;7.45;;;4.57;;
30287;SDS011;17103;48.316;11.558;2023-04-15T14:06:03;4.05;;;2.97;;
30287;SDS011;17103;48.316;11.558;2023-04-15T14:08:29;3.33;;;2.47;;
30287;SDS011;17103;48.316;11.558;2023-04-15T14:10:55;10.02;;;2.97;;
30287;SDS011;17103;48.316;11.558;2023-04-15T14:13:21;6.63;;;3.05;;
30287;SDS011;17103;48.316;11.558;2023-04-15T14:15:47;3.20;;;2.85;;
30287;SDS011;17103;48.316;11.558;2023-04-15T14:18:13;3.08;;;1.95;;
30287;SDS011;17103;48.316;11.558;2023-04-15T14:20:38;5.00;;;2.65;;
30287;SDS011;17103;48.316;11.558;2023-04-15T14:23:04;2.97;;;1.75;;
30287;SDS011;17103;48.316;11.558;2023-04-15T14:25:30;4.20;;;2.85;;
30287;SDS011;17103;48.316;11.558;2023-04-15T14:27:55;3.20;;;2.58;;
30287;SDS011;17103;48.316;11.558;2023-04-15T14:30:21;3.50;;;2.28;;
30287;SDS011;17103;48.316;11.558;2023-04-15T14:32:47;3.60;;;2.67;;
30287;SDS011;17103;48.316;11.558;2023-04-15T14:35:12;3.80;;;2.53;;
30287;SDS011;17103;48.316;11.558;2023-04-15T14:37:38;3.67;;;2.00;;
30287;SDS011;17103;48.316;11.558;2023-04-15T14:40:04;2.72;;;2.30;;
30287;SDS011;17103;48.316;11.558;2023-04-15T14:42:30;3.60;;;2.38;;
30287;SDS011;17103;48.316;11.558;2023-04-15T14:44:56;2.80;;;2.25;;
30287;SDS011;17103;48.316;11.558;2023-04-15T14:47:21;3.65;;;2.60;;
30287;SDS011;17103;48.316;11.558;2023-04-15T14:49:47;5.57;;;2.55;;
30287;SDS011;17103;48.316;11.558;2023-04-15T14:52:13;6.45;;;2.40;;
30287;SDS011;17103;48.316;11.558;2023-04-15T14:54:38;4.75;;;3.20;;
30287;SDS011;17103;48.316;11.558;2023-04-15T14:57:04;3.17;;;2.58;;
30287;SDS011;17103;48.316;11.558;2023-04-15T14:59:30;5.15;;;3.15;;